createdAt,value
2023-01-19T06:14:21.088Z,0.373
2023-01-19T06:20:49.008Z,0.747
2023-01-19T06:23:57.798Z,1.494
2023-01-19T06:26:46.236Z,2.241
2023-01-19T06:29:29.570Z,3.361
2023-01-19T06:33:03.985Z,5.602
2023-01-19T06:35:52.319Z,8.964
2023-01-19T06:38:30.475Z,13.446
2023-01-19T06:41:03.490Z,19.422
2023-01-19T06:43:41.731Z,28.386
2023-01-19T06:46:14.796Z,39.591
2023-01-19T06:48:47.927Z,54.157
2023-01-19T06:51:21.029Z,73.579
2023-01-19T06:53:54.100Z,97.11
2023-01-19T06:56:27.189Z,125.496
2023-01-19T06:59:00.291Z,159.111
2023-01-19T07:01:59.089Z,206.172
2023-01-19T07:04:47.279Z,256.968
2023-01-19T07:07:35.717Z,307.764
2023-01-19T07:10:24.123Z,363.042
2023-01-19T07:13:02.784Z,421.308
2023-01-19T07:16:26.484Z,504.972
2023-01-19T07:19:14.768Z,576.684
2023-01-19T07:21:58.142Z,639.432
2023-01-19T07:24:56.786Z,717.12
2023-01-19T07:27:29.884Z,788.832
2023-01-19T07:30:02.928Z,854.568
2023-01-19T07:32:51.345Z,944.208
2023-01-19T07:36:40.935Z,1075.68
2023-01-19T07:39:19.145Z,1153.368
2023-01-19T07:41:52.202Z,1266.912
2023-01-19T07:44:25.315Z,1398.384
2023-01-19T07:46:58.410Z,1529.856
2023-01-19T07:49:36.598Z,1613.52
2023-01-19T07:52:09.634Z,1768.896
2023-01-19T07:55:08.223Z,2330.64
2023-01-19T07:57:51.519Z,3322.656
2023-01-19T08:01:36.024Z,4015.872
2023-01-19T08:04:19.357Z,3872.448
2023-01-19T08:06:52.332Z,4446.144
2023-01-19T08:09:45.907Z,3609.504
2023-01-19T08:12:19.014Z,4326.624
2023-01-19T08:15:33.033Z,3968.064
2023-01-19T08:18:11.003Z,4374.432
2023-01-19T08:20:49.264Z,4709.088
2023-01-19T08:23:47.834Z,3991.968
2023-01-19T08:26:20.938Z,5091.552
2023-01-19T08:29:24.572Z,4852.512
2023-01-19T08:31:57.771Z,5665.248
2023-01-19T08:34:30.702Z,5713.056
2023-01-19T08:37:13.930Z,6167.232
2023-01-19T08:40:02.327Z,5019.84
2023-01-19T08:42:40.576Z,5402.304
2023-01-19T08:45:34.115Z,5808.672
2023-01-19T08:48:22.445Z,4685.184
2023-01-19T08:50:55.573Z,5187.168
2023-01-19T08:53:28.652Z,5354.496
2023-01-19T08:56:18.523Z,6358.464
2023-01-19T08:59:30.930Z,5856.48
2023-01-19T09:02:19.443Z,5234.976
2023-01-19T09:04:52.354Z,4637.376
2023-01-19T09:07:40.816Z,7983.936
2023-01-19T09:10:39.342Z,9609.408
2023-01-19T09:13:12.411Z,9752.832
2023-01-19T09:15:55.757Z,9370.368
2023-01-19T09:18:44.105Z,10422.144
2023-01-19T09:21:22.237Z,10326.528
2023-01-19T09:24:05.497Z,10756.8
2023-01-19T09:26:58.955Z,10756.8
2023-01-19T09:29:42.229Z,10565.568
2023-01-19T09:32:20.454Z,11187.072
2023-01-19T09:34:53.509Z,10135.296
2023-01-19T09:37:36.783Z,9800.64
2023-01-19T09:40:14.951Z,12095.424
2023-01-19T09:42:53.122Z,12095.424
2023-01-19T09:46:37.734Z,13195.008
2023-01-19T09:49:20.885Z,13481.856
2023-01-19T09:52:04.143Z,13577.472
2023-01-19T09:54:47.506Z,14342.4
2023-01-19T09:57:25.726Z,13290.624
2023-01-19T10:00:34.681Z,14916.096
2023-01-19T10:03:48.544Z,15202.944
2023-01-19T10:06:26.762Z,15681.024
2023-01-19T10:08:59.876Z,16063.488
2023-01-19T10:11:51.767Z,16159.104
2023-01-19T10:14:21.442Z,15872.256
2023-01-19T10:16:54.521Z,16637.184
2023-01-19T10:19:27.689Z,17019.648
2023-01-19T10:22:05.956Z,17019.648
2023-01-19T10:25:04.586Z,17688.96
2023-01-19T10:28:13.364Z,17975.808
2023-01-19T10:31:12.212Z,18262.656
2023-01-19T10:33:50.264Z,18645.12
2023-01-19T10:36:23.408Z,18836.352
2023-01-19T10:39:11.872Z,19123.2
2023-01-19T10:41:55.247Z,19123.2
2023-01-19T10:44:48.705Z,19792.512
2023-01-19T10:47:37.177Z,18740.736
2023-01-19T10:50:15.331Z,20557.44
2023-01-19T10:52:59.023Z,20844.288
2023-01-19T10:55:42.067Z,20653.056
2023-01-19T10:58:15.205Z,19983.744
2023-01-19T11:01:13.920Z,20270.592
2023-01-19T11:04:33.005Z,22374.144
2023-01-19T11:07:06.108Z,21609.216
2023-01-19T11:09:44.845Z,23234.688
2023-01-19T11:12:18.022Z,23712.768
2023-01-19T11:14:51.103Z,22852.224
2023-01-19T11:17:24.272Z,23521.536
2023-01-19T11:20:08.462Z,24668.928
2023-01-19T11:22:41.687Z,24382.08
2023-01-19T11:25:40.304Z,24286.464
2023-01-19T11:28:34.152Z,25816.32
2023-01-19T11:31:12.920Z,27154.944
2023-01-19T11:33:49.718Z,27154.944
2023-01-19T11:36:28.410Z,26772.48
2023-01-19T11:39:02.561Z,27154.944
2023-01-19T11:41:36.777Z,27346.176
2023-01-19T11:44:08.560Z,10326.528
2023-01-19T11:46:40.845Z,9705.024
2023-01-19T11:49:14.530Z,8653.248
2023-01-19T11:51:48.919Z,26390.016
2023-01-19T11:54:19.588Z,27154.944
2023-01-19T11:57:26.707Z,13386.24
2023-01-19T12:00:00.639Z,13386.24
2023-01-19T12:02:36.156Z,8414.208
2023-01-19T12:05:14.389Z,10708.992
2023-01-19T12:07:57.720Z,9322.56
2023-01-19T12:10:51.291Z,12430.08
2023-01-19T12:13:24.331Z,11760.768
2023-01-19T12:16:07.604Z,11665.152
2023-01-19T12:18:40.783Z,9657.216
2023-01-19T12:21:13.935Z,8462.016
2023-01-19T12:24:02.337Z,8318.592
2023-01-19T12:26:40.625Z,8987.904
2023-01-19T12:29:18.838Z,8557.632
2023-01-19T12:31:51.989Z,9131.328
2023-01-19T12:34:35.217Z,7266.816
2023-01-19T12:37:08.337Z,6215.04
2023-01-19T12:40:07.032Z,6549.696
2023-01-19T12:43:00.567Z,7744.896
2023-01-19T12:45:54.141Z,7410.24
2023-01-19T12:48:47.633Z,6884.352
2023-01-19T12:51:20.722Z,6597.504
2023-01-19T12:53:58.924Z,7410.24
2023-01-19T12:56:42.215Z,6693.12
2023-01-19T12:59:20.493Z,9131.328
2023-01-19T13:02:14.095Z,8414.208
2023-01-19T13:04:52.228Z,8318.592
2023-01-19T13:07:30.478Z,7362.432
2023-01-19T13:10:13.833Z,5760.864
2023-01-19T13:12:46.836Z,6406.272
2023-01-19T13:15:19.948Z,7458.048
2023-01-19T13:18:18.564Z,6406.272
2023-01-19T13:21:07.014Z,8079.552
2023-01-19T13:23:45.732Z,5928.192
2023-01-19T13:26:17.961Z,7171.2
2023-01-19T13:28:53.147Z,8844.48
2023-01-19T13:31:31.437Z,6358.464
2023-01-19T13:34:04.570Z,7888.32
2023-01-19T13:37:03.223Z,7983.936
2023-01-19T13:39:56.756Z,7601.472
2023-01-19T13:42:40.047Z,5569.632
2023-01-19T13:45:38.573Z,5952.096
2023-01-19T13:48:16.805Z,6454.08
2023-01-19T13:51:30.703Z,7171.2
2023-01-19T13:54:03.869Z,7505.856
2023-01-19T13:56:47.132Z,7314.624
2023-01-19T13:59:20.276Z,6215.04
2023-01-19T14:02:44.539Z,5593.536
2023-01-19T14:05:17.654Z,5234.976
2023-01-19T14:07:50.698Z,5569.632
2023-01-19T14:10:23.798Z,4995.936
2023-01-19T14:13:02.122Z,4924.224
2023-01-19T14:15:45.512Z,4159.296
2023-01-19T14:18:28.775Z,4972.032
2023-01-19T14:21:01.975Z,4015.872
2023-01-19T14:23:45.347Z,3824.64
2023-01-19T14:26:18.437Z,3609.504
2023-01-19T14:29:01.779Z,3023.856
2023-01-19T14:31:34.930Z,3047.76
2023-01-19T14:34:13.198Z,3059.712
2023-01-19T14:36:51.363Z,3179.232
2023-01-19T14:39:24.493Z,3537.792
2023-01-19T14:42:17.966Z,3585.6
2023-01-19T14:44:51.129Z,3394.368
2023-01-19T14:47:29.332Z,3035.808
2023-01-19T14:50:12.668Z,2665.296
2023-01-19T14:52:50.860Z,2246.976
2023-01-19T14:55:34.198Z,2306.736
2023-01-19T14:58:07.306Z,1673.28
2023-01-19T15:00:45.734Z,1511.928
2023-01-19T15:03:45.547Z,1458.144
2023-01-19T15:06:12.325Z,1248.984
2023-01-19T15:08:50.595Z,1051.776
2023-01-19T15:11:33.863Z,908.352
2023-01-19T15:14:11.977Z,806.76
2023-01-19T15:17:25.876Z,749.988
2023-01-19T15:19:59.005Z,663.336
2023-01-19T15:22:32.112Z,612.54
2023-01-19T15:25:15.488Z,513.936
2023-01-19T15:27:48.706Z,424.296
2023-01-19T15:30:37.005Z,346.608
2023-01-19T15:33:20.296Z,286.848
2023-01-19T15:35:53.353Z,243.522
2023-01-19T15:38:26.511Z,210.654
2023-01-19T15:40:59.613Z,173.304
2023-01-19T15:43:32.704Z,139.689
2023-01-19T15:46:05.852Z,99.351
2023-01-19T15:48:38.951Z,71.712
2023-01-19T15:51:12.053Z,54.904
2023-01-19T15:53:45.159Z,40.711
2023-01-19T15:56:28.479Z,27.265
2023-01-19T15:59:06.699Z,17.928
2023-01-19T16:01:55.221Z,11.578
2023-01-19T16:04:33.267Z,8.217
2023-01-19T16:07:16.533Z,5.602
2023-01-19T16:09:54.676Z,3.361
2023-01-19T16:13:34.070Z,2.241
2023-01-19T16:17:33.932Z,1.12
2023-01-19T16:21:08.199Z,0.373
2023-01-19T16:26:39.895Z,0
